sensor_id;sensor_type;location;lat;lon;timestamp;P1;durP1;ratioP1;P2;durP2;ratioP2
67717;SDS011;54511;47.532;19.180;2023-04-01T03:13:24;0.45;;;0.30;;
67717;SDS011;54511;47.532;19.180;2023-04-01T04:38:25;0.55;;;0.55;;
67717;SDS011;54511;47.532;19.180;2023-04-01T04:40:56;0.40;;;0.28;;
67717;SDS011;54511;47.532;19.180;2023-04-01T04:43:48;2.78;;;0.30;;
67717;SDS011;54511;47.532;19.180;2023-04-01T05:48:59;1.45;;;0.98;;
67717;SDS011;54511;47.532;19.180;2023-04-01T05:51:31;1.67;;;0.82;;
67717;SDS011;54511;47.532;19.180;2023-04-01T05:54:09;0.05;;;0.05;;
67717;SDS011;54511;47.532;19.180;2023-04-01T05:56:36;0.22;;;0.22;;
67717;SDS011;54511;47.532;19.180;2023-04-01T05:59:03;0.40;;;0.40;;
67717;SDS011;54511;47.532;19.180;2023-04-01T06:01:33;0.20;;;0.20;;
67717;SDS011;54511;47.532;19.180;2023-04-01T06:04:00;0.35;;;0.35;;
67717;SDS011;54511;47.532;19.180;2023-04-01T06:06:30;0.13;;;0.10;;
67717;SDS011;54511;47.532;19.180;2023-04-01T06:09:00;1.15;;;0.43;;
67717;SDS011;54511;47.532;19.180;2023-04-01T06:11:38;1.15;;;0.37;;
67717;SDS011;54511;47.532;19.180;2023-04-01T06:14:21;2.15;;;0.25;;
67717;SDS011;54511;47.532;19.180;2023-04-01T06:17:02;0.08;;;0.08;;
67717;SDS011;54511;47.532;19.180;2023-04-01T06:19:40;0.62;;;0.25;;
67717;SDS011;54511;47.532;19.180;2023-04-01T06:25:28;0.00;;;0.00;;
67717;SDS011;54511;47.532;19.180;2023-04-01T06:28:07;0.43;;;0.10;;
67717;SDS011;54511;47.532;19.180;2023-04-01T06:31:03;0.00;;;0.00;;
67717;SDS011;54511;47.532;19.180;2023-04-01T06:33:46;0.68;;;0.37;;
67717;SDS011;54511;47.532;19.180;2023-04-01T06:36:44;0.50;;;0.35;;
67717;SDS011;54511;47.532;19.180;2023-04-01T06:39:42;1.35;;;0.20;;
67717;SDS011;54511;47.532;19.180;2023-04-01T06:42:19;0.10;;;0.10;;
67717;SDS011;54511;47.532;19.180;2023-04-01T06:45:06;2.45;;;0.65;;
67717;SDS011;54511;47.532;19.180;2023-04-01T06:47:46;0.32;;;0.17;;
67717;SDS011;54511;47.532;19.180;2023-04-01T06:50:24;0.85;;;0.85;;
67717;SDS011;54511;47.532;19.180;2023-04-01T06:53:12;0.35;;;0.17;;
67717;SDS011;54511;47.532;19.180;2023-04-01T06:56:11;0.55;;;0.43;;
67717;SDS011;54511;47.532;19.180;2023-04-01T06:58:42;1.50;;;0.95;;
67717;SDS011;54511;47.532;19.180;2023-04-01T07:01:16;2.85;;;1.95;;
67717;SDS011;54511;47.532;19.180;2023-04-01T07:03:47;0.75;;;0.62;;
67717;SDS011;54511;47.532;19.180;2023-04-01T07:06:23;0.30;;;0.10;;
67717;SDS011;54511;47.532;19.180;2023-04-01T07:08:52;1.15;;;0.55;;
67717;SDS011;54511;47.532;19.180;2023-04-01T07:11:26;0.10;;;0.10;;
67717;SDS011;54511;47.532;19.180;2023-04-01T07:13:57;0.00;;;0.00;;
67717;SDS011;54511;47.532;19.180;2023-04-01T07:16:29;0.35;;;0.20;;
67717;SDS011;54511;47.532;19.180;2023-04-01T07:19:03;0.10;;;0.10;;
67717;SDS011;54511;47.532;19.180;2023-04-01T07:21:39;0.25;;;0.25;;
67717;SDS011;54511;47.532;19.180;2023-04-01T07:24:10;0.00;;;0.00;;
67717;SDS011;54511;47.532;19.180;2023-04-01T07:26:40;0.10;;;0.10;;
67717;SDS011;54511;47.532;19.180;2023-04-01T07:29:09;0.20;;;0.20;;
67717;SDS011;54511;47.532;19.180;2023-04-01T07:31:43;0.00;;;0.00;;
67717;SDS011;54511;47.532;19.180;2023-04-01T07:34:19;1.55;;;0.75;;
67717;SDS011;54511;47.532;19.180;2023-04-01T07:36:53;0.10;;;0.10;;
67717;SDS011;54511;47.532;19.180;2023-04-01T07:39:30;1.27;;;0.35;;
67717;SDS011;54511;47.532;19.180;2023-04-01T07:42:05;0.00;;;0.00;;
67717;SDS011;54511;47.532;19.180;2023-04-01T07:44:59;0.00;;;0.00;;
67717;SDS011;54511;47.532;19.180;2023-04-01T07:47:34;0.10;;;0.10;;
67717;SDS011;54511;47.532;19.180;2023-04-01T07:50:13;0.08;;;0.08;;
67717;SDS011;54511;47.532;19.180;2023-04-01T07:52:49;0.00;;;0.00;;
67717;SDS011;54511;47.532;19.180;2023-04-01T07:55:21;0.20;;;0.20;;
67717;SDS011;54511;47.532;19.180;2023-04-01T07:57:51;0.45;;;0.45;;
67717;SDS011;54511;47.532;19.180;2023-04-01T08:00:27;1.65;;;1.27;;
67717;SDS011;54511;47.532;19.180;2023-04-01T08:03:06;6.43;;;0.60;;
67717;SDS011;54511;47.532;19.180;2023-04-01T08:05:41;0.62;;;0.32;;
67717;SDS011;54511;47.532;19.180;2023-04-01T08:08:18;0.00;;;0.00;;
67717;SDS011;54511;47.532;19.180;2023-04-01T08:10:51;0.00;;;0.00;;
67717;SDS011;54511;47.532;19.180;2023-04-01T08:13:22;0.00;;;0.00;;
67717;SDS011;54511;47.532;19.180;2023-04-01T08:16:09;0.20;;;0.20;;
67717;SDS011;54511;47.532;19.180;2023-04-01T08:18:43;0.20;;;0.20;;
67717;SDS011;54511;47.532;19.180;2023-04-01T08:21:16;0.00;;;0.00;;
67717;SDS011;54511;47.532;19.180;2023-04-01T08:23:49;0.52;;;0.20;;
67717;SDS011;54511;47.532;19.180;2023-04-01T08:26:22;0.00;;;0.00;;
67717;SDS011;54511;47.532;19.180;2023-04-01T08:28:57;0.20;;;0.20;;
67717;SDS011;54511;47.532;19.180;2023-04-01T08:31:29;0.00;;;0.00;;
67717;SDS011;54511;47.532;19.180;2023-04-01T08:34:00;0.20;;;0.20;;
67717;SDS011;54511;47.532;19.180;2023-04-01T08:36:31;0.10;;;0.10;;
67717;SDS011;54511;47.532;19.180;2023-04-01T08:39:05;0.00;;;0.00;;
67717;SDS011;54511;47.532;19.180;2023-04-01T08:41:50;0.20;;;0.10;;
67717;SDS011;54511;47.532;19.180;2023-04-01T08:44:40;0.00;;;0.00;;
67717;SDS011;54511;47.532;19.180;2023-04-01T08:47:54;0.10;;;0.10;;
67717;SDS011;54511;47.532;19.180;2023-04-01T08:53:46;0.10;;;0.10;;
67717;SDS011;54511;47.532;19.180;2023-04-01T08:56:36;0.37;;;0.37;;
67717;SDS011;54511;47.532;19.180;2023-04-01T08:59:14;0.00;;;0.00;;
67717;SDS011;54511;47.532;19.180;2023-04-01T09:01:56;0.00;;;0.00;;
67717;SDS011;54511;47.532;19.180;2023-04-01T09:04:38;0.08;;;0.08;;
67717;SDS011;54511;47.532;19.180;2023-04-01T09:07:29;0.10;;;0.10;;
67717;SDS011;54511;47.532;19.180;2023-04-01T09:10:21;0.00;;;0.00;;
67717;SDS011;54511;47.532;19.180;2023-04-01T09:16:24;0.05;;;0.05;;
67717;SDS011;54511;47.532;19.180;2023-04-01T09:19:21;0.10;;;0.00;;
67717;SDS011;54511;47.532;19.180;2023-04-01T09:27:56;0.10;;;0.10;;
67717;SDS011;54511;47.532;19.180;2023-04-01T09:30:36;0.10;;;0.10;;
67717;SDS011;54511;47.532;19.180;2023-04-01T09:36:21;0.00;;;0.00;;
67717;SDS011;54511;47.532;19.180;2023-04-01T09:42:31;0.05;;;0.05;;
67717;SDS011;54511;47.532;19.180;2023-04-01T09:45:05;0.43;;;0.30;;
67717;SDS011;54511;47.532;19.180;2023-04-01T09:47:41;0.25;;;0.22;;
67717;SDS011;54511;47.532;19.180;2023-04-01T09:53:04;0.30;;;0.22;;
67717;SDS011;54511;47.532;19.180;2023-04-01T09:55:49;1.10;;;0.40;;
67717;SDS011;54511;47.532;19.180;2023-04-01T09:58:33;0.10;;;0.10;;
67717;SDS011;54511;47.532;19.180;2023-04-01T10:05:04;0.40;;;0.40;;
67717;SDS011;54511;47.532;19.180;2023-04-01T10:11:12;0.05;;;0.05;;
67717;SDS011;54511;47.532;19.180;2023-04-01T10:18:01;0.10;;;0.10;;
67717;SDS011;54511;47.532;19.180;2023-04-01T10:23:38;0.00;;;0.00;;
67717;SDS011;54511;47.532;19.180;2023-04-01T10:26:35;0.37;;;0.28;;
67717;SDS011;54511;47.532;19.180;2023-04-01T10:29:50;0.37;;;0.32;;
67717;SDS011;54511;47.532;19.180;2023-04-01T10:33:06;2.65;;;0.82;;
67717;SDS011;54511;47.532;19.180;2023-04-01T10:35:51;0.00;;;0.00;;
67717;SDS011;54511;47.532;19.180;2023-04-01T10:38:39;0.00;;;0.00;;
67717;SDS011;54511;47.532;19.180;2023-04-01T10:42:00;0.10;;;0.10;;
67717;SDS011;54511;47.532;19.180;2023-04-01T10:48:08;0.05;;;0.05;;
67717;SDS011;54511;47.532;19.180;2023-04-01T10:51:16;0.00;;;0.00;;
67717;SDS011;54511;47.532;19.180;2023-04-01T10:54:58;0.30;;;0.30;;
67717;SDS011;54511;47.532;19.180;2023-04-01T10:57:58;0.68;;;0.25;;
67717;SDS011;54511;47.532;19.180;2023-04-01T11:10:58;0.15;;;0.13;;
67717;SDS011;54511;47.532;19.180;2023-04-01T11:14:26;0.00;;;0.00;;
67717;SDS011;54511;47.532;19.180;2023-04-01T11:17:57;0.00;;;0.00;;
67717;SDS011;54511;47.532;19.180;2023-04-01T11:20:45;0.32;;;0.32;;
67717;SDS011;54511;47.532;19.180;2023-04-01T11:23:50;0.65;;;0.50;;
67717;SDS011;54511;47.532;19.180;2023-04-01T11:26:31;0.15;;;0.10;;
67717;SDS011;54511;47.532;19.180;2023-04-01T11:29:08;0.25;;;0.25;;
67717;SDS011;54511;47.532;19.180;2023-04-01T11:31:56;0.32;;;0.20;;
67717;SDS011;54511;47.532;19.180;2023-04-01T11:34:35;0.10;;;0.10;;
67717;SDS011;54511;47.532;19.180;2023-04-01T11:37:37;0.35;;;0.35;;
67717;SDS011;54511;47.532;19.180;2023-04-01T11:40:11;0.00;;;0.00;;
67717;SDS011;54511;47.532;19.180;2023-04-01T11:43:07;0.20;;;0.20;;
67717;SDS011;54511;47.532;19.180;2023-04-01T11:45:40;0.20;;;0.20;;
67717;SDS011;54511;47.532;19.180;2023-04-01T11:48:53;0.80;;;0.30;;
67717;SDS011;54511;47.532;19.180;2023-04-01T11:51:40;0.10;;;0.10;;
67717;SDS011;54511;47.532;19.180;2023-04-01T11:54:40;0.10;;;0.10;;
67717;SDS011;54511;47.532;19.180;2023-04-01T12:00:38;0.75;;;0.10;;
67717;SDS011;54511;47.532;19.180;2023-04-01T12:07:01;0.70;;;0.65;;
67717;SDS011;54511;47.532;19.180;2023-04-01T12:10:15;0.10;;;0.10;;
67717;SDS011;54511;47.532;19.180;2023-04-01T12:13:07;1.10;;;0.73;;
67717;SDS011;54511;47.532;19.180;2023-04-01T12:15:48;0.20;;;0.20;;
67717;SDS011;54511;47.532;19.180;2023-04-01T12:18:23;0.82;;;0.82;;
67717;SDS011;54511;47.532;19.180;2023-04-01T12:20:56;0.20;;;0.20;;
67717;SDS011;54511;47.532;19.180;2023-04-01T12:23:48;1.12;;;0.62;;
67717;SDS011;54511;47.532;19.180;2023-04-01T12:26:43;0.73;;;0.73;;
67717;SDS011;54511;47.532;19.180;2023-04-01T12:29:34;3.15;;;2.15;;
67717;SDS011;54511;47.532;19.180;2023-04-01T12:32:34;0.68;;;0.68;;
67717;SDS011;54511;47.532;19.180;2023-04-01T12:35:25;3.37;;;0.95;;
67717;SDS011;54511;47.532;19.180;2023-04-01T12:38:22;1.75;;;0.62;;
67717;SDS011;54511;47.532;19.180;2023-04-01T12:41:20;1.55;;;1.02;;
67717;SDS011;54511;47.532;19.180;2023-04-01T12:44:15;1.52;;;1.12;;
67717;SDS011;54511;47.532;19.180;2023-04-01T12:47:09;0.57;;;0.30;;
67717;SDS011;54511;47.532;19.180;2023-04-01T12:50:16;0.40;;;0.35;;
67717;SDS011;54511;47.532;19.180;2023-04-01T12:52:54;1.42;;;0.75;;
67717;SDS011;54511;47.532;19.180;2023-04-01T12:55:40;0.95;;;0.60;;
67717;SDS011;54511;47.532;19.180;2023-04-01T13:01:16;0.50;;;0.30;;
67717;SDS011;54511;47.532;19.180;2023-04-01T13:04:02;0.43;;;0.43;;
67717;SDS011;54511;47.532;19.180;2023-04-01T13:06:54;0.52;;;0.52;;
67717;SDS011;54511;47.532;19.180;2023-04-01T13:09:42;0.80;;;0.80;;
67717;SDS011;54511;47.532;19.180;2023-04-01T13:12:20;0.30;;;0.30;;
67717;SDS011;54511;47.532;19.180;2023-04-01T13:15:17;0.45;;;0.40;;
67717;SDS011;54511;47.532;19.180;2023-04-01T13:18:18;0.10;;;0.10;;
67717;SDS011;54511;47.532;19.180;2023-04-01T13:20:53;0.05;;;0.05;;
67717;SDS011;54511;47.532;19.180;2023-04-01T13:23:30;0.10;;;0.05;;
67717;SDS011;54511;47.532;19.180;2023-04-01T13:26:07;0.03;;;0.03;;
67717;SDS011;54511;47.532;19.180;2023-04-01T13:28:57;0.20;;;0.20;;
67717;SDS011;54511;47.532;19.180;2023-04-01T13:31:36;0.10;;;0.10;;
67717;SDS011;54511;47.532;19.180;2023-04-01T13:34:19;0.55;;;0.35;;
67717;SDS011;54511;47.532;19.180;2023-04-01T13:36:59;0.20;;;0.17;;
67717;SDS011;54511;47.532;19.180;2023-04-01T13:39:39;0.50;;;0.50;;
67717;SDS011;54511;47.532;19.180;2023-04-01T13:42:21;2.37;;;0.20;;
67717;SDS011;54511;47.532;19.180;2023-04-01T13:45:10;1.70;;;0.47;;
67717;SDS011;54511;47.532;19.180;2023-04-01T13:47:55;2.60;;;0.75;;
67717;SDS011;54511;47.532;19.180;2023-04-01T13:50:58;2.17;;;1.50;;
67717;SDS011;54511;47.532;19.180;2023-04-01T13:53:57;2.75;;;0.80;;
67717;SDS011;54511;47.532;19.180;2023-04-01T13:56:37;3.20;;;0.60;;
67717;SDS011;54511;47.532;19.180;2023-04-01T14:02:29;1.77;;;0.80;;
67717;SDS011;54511;47.532;19.180;2023-04-01T14:09:03;0.30;;;0.20;;
67717;SDS011;54511;47.532;19.180;2023-04-01T14:11:50;0.10;;;0.10;;
67717;SDS011;54511;47.532;19.180;2023-04-01T14:14:26;0.30;;;0.30;;
67717;SDS011;54511;47.532;19.180;2023-04-01T14:17:35;0.10;;;0.10;;
67717;SDS011;54511;47.532;19.180;2023-04-01T14:26:22;0.13;;;0.13;;
67717;SDS011;54511;47.532;19.180;2023-04-01T14:29:02;0.10;;;0.10;;
67717;SDS011;54511;47.532;19.180;2023-04-01T14:31:47;0.43;;;0.10;;
67717;SDS011;54511;47.532;19.180;2023-04-01T14:34:26;0.20;;;0.20;;
67717;SDS011;54511;47.532;19.180;2023-04-01T14:37:22;0.17;;;0.17;;
67717;SDS011;54511;47.532;19.180;2023-04-01T14:40:28;0.68;;;0.28;;
67717;SDS011;54511;47.532;19.180;2023-04-01T14:46:07;0.13;;;0.13;;
67717;SDS011;54511;47.532;19.180;2023-04-01T14:48:49;1.50;;;0.88;;
67717;SDS011;54511;47.532;19.180;2023-04-01T14:51:20;0.45;;;0.45;;
67717;SDS011;54511;47.532;19.180;2023-04-01T14:53:53;0.30;;;0.30;;
67717;SDS011;54511;47.532;19.180;2023-04-01T14:56:41;0.85;;;0.40;;
67717;SDS011;54511;47.532;19.180;2023-04-01T14:59:10;0.40;;;0.22;;
67717;SDS011;54511;47.532;19.180;2023-04-01T15:01:46;1.17;;;0.73;;
67717;SDS011;54511;47.532;19.180;2023-04-01T15:04:28;0.57;;;0.50;;
67717;SDS011;54511;47.532;19.180;2023-04-01T15:10:25;0.20;;;0.20;;
67717;SDS011;54511;47.532;19.180;2023-04-01T15:13:17;0.13;;;0.13;;
67717;SDS011;54511;47.532;19.180;2023-04-01T15:16:11;0.20;;;0.20;;
67717;SDS011;54511;47.532;19.180;2023-04-01T15:18:48;0.40;;;0.40;;
67717;SDS011;54511;47.532;19.180;2023-04-01T15:21:23;0.35;;;0.20;;
67717;SDS011;54511;47.532;19.180;2023-04-01T15:24:41;0.00;;;0.00;;
67717;SDS011;54511;47.532;19.180;2023-04-01T15:27:20;0.20;;;0.20;;
67717;SDS011;54511;47.532;19.180;2023-04-01T15:30:11;0.70;;;0.20;;
67717;SDS011;54511;47.532;19.180;2023-04-01T15:33:06;0.45;;;0.45;;
67717;SDS011;54511;47.532;19.180;2023-04-01T15:36:08;0.52;;;0.30;;
67717;SDS011;54511;47.532;19.180;2023-04-01T15:38:48;0.10;;;0.10;;
67717;SDS011;54511;47.532;19.180;2023-04-01T15:41:42;0.10;;;0.10;;
67717;SDS011;54511;47.532;19.180;2023-04-01T15:44:42;0.37;;;0.37;;
67717;SDS011;54511;47.532;19.180;2023-04-01T15:47:56;0.30;;;0.22;;
67717;SDS011;54511;47.532;19.180;2023-04-01T15:51:25;0.45;;;0.45;;
67717;SDS011;54511;47.532;19.180;2023-04-01T15:55:17;0.82;;;0.82;;
67717;SDS011;54511;47.532;19.180;2023-04-01T15:58:17;0.20;;;0.20;;
67717;SDS011;54511;47.532;19.180;2023-04-01T16:01:53;0.30;;;0.30;;
67717;SDS011;54511;47.532;19.180;2023-04-01T16:12:10;0.17;;;0.17;;
67717;SDS011;54511;47.532;19.180;2023-04-01T16:15:22;0.00;;;0.00;;
67717;SDS011;54511;47.532;19.180;2023-04-01T16:18:39;0.30;;;0.30;;
67717;SDS011;54511;47.532;19.180;2023-04-01T16:24:24;7.78;;;0.60;;
67717;SDS011;54511;47.532;19.180;2023-04-01T16:27:50;0.03;;;0.03;;
67717;SDS011;54511;47.532;19.180;2023-04-01T16:34:25;4.18;;;0.70;;
67717;SDS011;54511;47.532;19.180;2023-04-01T16:38:11;0.15;;;0.15;;
67717;SDS011;54511;47.532;19.180;2023-04-01T16:41:47;0.30;;;0.30;;
67717;SDS011;54511;47.532;19.180;2023-04-01T16:45:29;0.22;;;0.17;;
67717;SDS011;54511;47.532;19.180;2023-04-01T16:49:05;0.43;;;0.20;;
67717;SDS011;54511;47.532;19.180;2023-04-01T16:53:08;0.20;;;0.20;;
67717;SDS011;54511;47.532;19.180;2023-04-01T16:57:02;0.30;;;0.28;;
67717;SDS011;54511;47.532;19.180;2023-04-01T17:00:15;0.65;;;0.50;;
67717;SDS011;54511;47.532;19.180;2023-04-01T17:03:50;0.00;;;0.00;;
67717;SDS011;54511;47.532;19.180;2023-04-01T17:07:05;0.28;;;0.25;;
67717;SDS011;54511;47.532;19.180;2023-04-01T17:10:39;0.10;;;0.10;;
67717;SDS011;54511;47.532;19.180;2023-04-01T17:14:13;0.00;;;0.00;;
67717;SDS011;54511;47.532;19.180;2023-04-01T17:17:45;0.17;;;0.17;;
67717;SDS011;54511;47.532;19.180;2023-04-01T17:20:56;0.45;;;0.45;;
67717;SDS011;54511;47.532;19.180;2023-04-01T17:24:14;1.85;;;0.75;;
67717;SDS011;54511;47.532;19.180;2023-04-01T17:27:57;1.50;;;0.37;;
67717;SDS011;54511;47.532;19.180;2023-04-01T17:31:36;0.35;;;0.35;;
67717;SDS011;54511;47.532;19.180;2023-04-01T17:35:08;0.22;;;0.22;;
67717;SDS011;54511;47.532;19.180;2023-04-01T17:38:42;0.30;;;0.15;;
67717;SDS011;54511;47.532;19.180;2023-04-01T17:42:22;0.22;;;0.22;;
67717;SDS011;54511;47.532;19.180;2023-04-01T17:45:52;0.00;;;0.00;;
67717;SDS011;54511;47.532;19.180;2023-04-01T17:49:30;0.10;;;0.10;;
67717;SDS011;54511;47.532;19.180;2023-04-01T17:53:03;0.00;;;0.00;;
67717;SDS011;54511;47.532;19.180;2023-04-01T17:56:44;0.10;;;0.10;;
67717;SDS011;54511;47.532;19.180;2023-04-01T18:00:17;0.20;;;0.20;;
67717;SDS011;54511;47.532;19.180;2023-04-01T18:06:45;0.10;;;0.10;;
67717;SDS011;54511;47.532;19.180;2023-04-01T18:13:37;0.40;;;0.40;;
67717;SDS011;54511;47.532;19.180;2023-04-01T18:17:21;1.30;;;0.57;;
67717;SDS011;54511;47.532;19.180;2023-04-01T18:20:51;0.62;;;0.20;;
67717;SDS011;54511;47.532;19.180;2023-04-01T18:24:03;0.10;;;0.10;;
67717;SDS011;54511;47.532;19.180;2023-04-01T18:27:31;0.10;;;0.10;;
67717;SDS011;54511;47.532;19.180;2023-04-01T18:30:59;7.43;;;1.40;;
67717;SDS011;54511;47.532;19.180;2023-04-01T18:34:30;7.40;;;3.00;;
67717;SDS011;54511;47.532;19.180;2023-04-01T18:38:00;3.97;;;3.05;;
67717;SDS011;54511;47.532;19.180;2023-04-01T18:41:35;4.95;;;2.42;;
67717;SDS011;54511;47.532;19.180;2023-04-01T18:44:59;1.77;;;1.30;;
67717;SDS011;54511;47.532;19.180;2023-04-01T18:48:37;2.30;;;1.45;;
67717;SDS011;54511;47.532;19.180;2023-04-01T18:52:08;2.35;;;1.73;;
67717;SDS011;54511;47.532;19.180;2023-04-01T18:55:39;0.82;;;0.50;;
67717;SDS011;54511;47.532;19.180;2023-04-01T18:58:49;0.45;;;0.45;;
67717;SDS011;54511;47.532;19.180;2023-04-01T19:01:39;0.10;;;0.10;;
